createdAt,value
2018-02-19T00:00:35.156Z,16.30
2018-02-19T00:01:35.064Z,16.30
2018-02-19T00:03:28.425Z,16.20
2018-02-19T00:04:28.242Z,16.60
2018-02-19T00:06:21.515Z,16.30
2018-02-19T00:07:21.422Z,16.70
2018-02-19T00:09:14.668Z,16.50
2018-02-19T00:10:14.596Z,16.10
2018-02-19T00:12:07.868Z,16.60
2018-02-19T00:13:07.775Z,17.20
2018-02-19T00:15:01.042Z,17.00
2018-02-19T00:16:00.948Z,16.80
2018-02-19T00:17:54.317Z,16.30
2018-02-19T00:18:54.127Z,16.70
2018-02-19T00:20:47.513Z,16.00
2018-02-19T00:21:47.329Z,15.90
2018-02-19T00:23:40.580Z,15.50
2018-02-19T00:24:40.505Z,16.00
2018-02-19T00:26:33.777Z,16.30
2018-02-19T00:27:33.688Z,16.50
2018-02-19T00:29:26.940Z,16.60
2018-02-19T00:30:26.864Z,16.00
2018-02-19T00:32:20.136Z,16.40
2018-02-19T00:33:20.043Z,17.70
2018-02-19T00:35:13.423Z,16.90
2018-02-19T00:36:13.331Z,15.90
2018-02-19T00:38:06.580Z,16.10
2018-02-19T00:39:06.507Z,15.70
2018-02-19T00:40:59.898Z,17.30
2018-02-19T00:41:59.684Z,16.50
2018-02-19T00:43:52.932Z,16.30
2018-02-19T00:44:52.860Z,15.90
2018-02-19T00:46:46.129Z,16.40
2018-02-19T00:47:46.039Z,16.40
2018-02-19T00:49:39.410Z,17.40
2018-02-19T00:50:39.330Z,17.10
2018-02-19T00:52:32.600Z,16.10
2018-02-19T00:53:32.507Z,17.00
2018-02-19T00:55:25.775Z,16.50
2018-02-19T00:56:25.690Z,16.00
2018-02-19T00:58:18.934Z,16.20
2018-02-19T00:59:18.860Z,16.70
2018-02-19T01:01:12.131Z,16.80
2018-02-19T01:02:12.039Z,16.60
2018-02-19T01:04:05.405Z,16.40
2018-02-19T01:05:05.328Z,17.00
2018-02-19T01:06:58.599Z,16.80
2018-02-19T01:07:58.507Z,17.20
2018-02-19T01:09:51.748Z,17.40
2018-02-19T01:10:51.674Z,17.20
2018-02-19T01:12:44.950Z,18.40
2018-02-19T01:13:44.850Z,17.20
2018-02-19T01:15:38.235Z,17.70
2018-02-19T01:16:38.030Z,17.80
2018-02-19T01:18:31.416Z,17.30
2018-02-19T01:19:31.331Z,17.60
2018-02-19T01:21:24.606Z,17.70
2018-02-19T01:22:24.510Z,17.00
2018-02-19T01:24:17.760Z,17.70
2018-02-19T01:25:17.686Z,17.90
2018-02-19T01:27:10.959Z,17.70
2018-02-19T01:28:10.864Z,18.10
2018-02-19T01:30:04.121Z,17.10
2018-02-19T01:31:04.041Z,17.70
2018-02-19T01:32:57.315Z,17.30
2018-02-19T01:33:57.222Z,17.20
2018-02-19T01:35:50.491Z,17.30
2018-02-19T01:36:50.400Z,17.50
2018-02-19T01:38:43.650Z,17.20
2018-02-19T01:39:43.575Z,15.90
2018-02-19T01:41:36.954Z,18.10
2018-02-19T01:42:36.752Z,17.90
2018-02-19T01:44:30.005Z,17.70
2018-02-19T01:45:29.930Z,18.10
2018-02-19T01:47:23.201Z,16.40
2018-02-19T01:48:23.110Z,16.90
2018-02-19T01:50:16.406Z,17.40
2018-02-19T01:51:16.331Z,18.90
2018-02-19T01:53:09.600Z,18.50
2018-02-19T01:54:09.504Z,17.80
2018-02-19T01:56:02.891Z,17.80
2018-02-19T01:57:02.682Z,17.70
2018-02-19T01:58:56.045Z,18.90
2018-02-19T01:59:55.860Z,17.30
2018-02-19T02:01:49.244Z,17.60
2018-02-19T02:02:49.037Z,17.00
2018-02-19T02:04:42.556Z,16.80
2018-02-19T02:05:42.483Z,17.60
2018-02-19T02:07:35.864Z,17.50
2018-02-19T02:08:35.660Z,17.60
2018-02-19T02:10:28.899Z,18.10
2018-02-19T02:11:28.826Z,17.30
2018-02-19T02:13:22.096Z,17.50
2018-02-19T02:14:22.002Z,17.20
2018-02-19T02:16:15.272Z,17.80
2018-02-19T02:17:15.182Z,17.90
2018-02-19T02:19:08.562Z,17.20
2018-02-19T02:20:08.488Z,17.50
2018-02-19T02:22:01.873Z,17.80
2018-02-19T02:23:01.667Z,17.30
2018-02-19T02:24:54.916Z,17.90
2018-02-19T02:25:54.848Z,18.30
2018-02-19T02:27:48.112Z,17.70
2018-02-19T02:28:48.020Z,18.80
2018-02-19T02:30:41.259Z,18.60
2018-02-19T02:31:41.186Z,17.70
2018-02-19T02:33:34.593Z,17.90
2018-02-19T02:34:34.502Z,17.80
2018-02-19T02:36:27.771Z,18.30
2018-02-19T02:37:27.680Z,18.60
2018-02-19T02:39:20.927Z,17.20
2018-02-19T02:40:20.850Z,17.30
2018-02-19T02:42:14.123Z,18.40
2018-02-19T02:43:14.030Z,17.90
2018-02-19T02:45:07.287Z,17.70
2018-02-19T02:46:07.209Z,18.10
2018-02-19T02:48:00.579Z,17.70
2018-02-19T02:49:00.484Z,18.20
2018-02-19T02:50:53.737Z,18.30
2018-02-19T02:51:53.658Z,18.80
2018-02-19T02:53:46.932Z,17.70
2018-02-19T02:54:46.838Z,18.10
2018-02-19T02:56:40.103Z,17.40
2018-02-19T02:57:40.011Z,17.90
2018-02-19T02:59:33.262Z,16.50
2018-02-19T03:00:33.186Z,18.80
2018-02-19T03:02:26.581Z,18.10
2018-02-19T03:03:26.486Z,19.30
2018-02-19T03:05:19.737Z,18.60
2018-02-19T03:06:19.663Z,17.60
2018-02-19T03:08:12.934Z,17.70
2018-02-19T03:09:12.841Z,17.50
2018-02-19T03:11:06.210Z,16.90
2018-02-19T03:12:06.019Z,17.60
2018-02-19T03:13:59.287Z,17.80
2018-02-19T03:14:59.192Z,17.70
2018-02-19T03:16:52.584Z,18.30
2018-02-19T03:17:52.485Z,18.70
2018-02-19T03:19:45.735Z,18.00
2018-02-19T03:20:45.665Z,17.50
2018-02-19T03:22:38.936Z,18.10
2018-02-19T03:23:38.843Z,18.00
2018-02-19T03:25:32.093Z,18.10
2018-02-19T03:26:32.020Z,18.40
2018-02-19T03:28:25.294Z,17.70
2018-02-19T03:29:25.197Z,18.20
2018-02-19T03:31:18.569Z,18.40
2018-02-19T03:32:18.493Z,18.70
2018-02-19T03:34:11.765Z,18.70
2018-02-19T03:35:11.671Z,17.50
2018-02-19T03:37:04.942Z,18.40
2018-02-19T03:38:04.850Z,18.50
2018-02-19T03:39:58.090Z,19.60
2018-02-19T03:40:58.013Z,19.30
2018-02-19T03:42:51.280Z,18.70
2018-02-19T03:43:51.190Z,19.80
2018-02-19T03:45:44.569Z,20.20
2018-02-19T03:46:44.491Z,19.70
2018-02-19T03:48:37.871Z,18.20
2018-02-19T03:49:37.666Z,20.20
2018-02-19T03:51:30.919Z,19.30
2018-02-19T03:52:30.840Z,19.70
2018-02-19T03:54:24.114Z,19.50
2018-02-19T03:55:24.016Z,20.00
2018-02-19T03:57:17.286Z,19.50
2018-02-19T03:58:17.193Z,19.00
2018-02-19T04:00:10.562Z,20.50
2018-02-19T04:01:10.482Z,20.10
2018-02-19T04:03:03.863Z,20.50
2018-02-19T04:04:03.658Z,20.50
2018-02-19T04:05:57.021Z,19.80
2018-02-19T04:06:56.833Z,21.00
2018-02-19T04:08:50.101Z,20.60
2018-02-19T04:09:50.004Z,20.70
2018-02-19T04:11:43.259Z,20.50
2018-02-19T04:12:43.184Z,21.00
2018-02-19T04:14:36.581Z,19.40
2018-02-19T04:15:36.486Z,20.90
2018-02-19T04:17:29.757Z,20.90
2018-02-19T04:18:29.664Z,20.70
2018-02-19T04:20:23.909Z,20.70
2018-02-19T04:21:23.830Z,20.80
2018-02-19T04:23:17.100Z,22.30
2018-02-19T04:24:17.007Z,21.20
2018-02-19T04:26:10.262Z,20.90
2018-02-19T04:27:10.182Z,19.40
2018-02-19T04:29:03.576Z,20.80
2018-02-19T04:30:03.479Z,21.00
2018-02-19T04:31:56.729Z,21.40
2018-02-19T04:32:56.655Z,21.00
2018-02-19T04:34:49.925Z,21.00
2018-02-19T04:35:49.833Z,21.00
2018-02-19T04:37:43.101Z,20.70
2018-02-19T04:38:43.004Z,20.90
2018-02-19T04:40:36.368Z,19.80
2018-02-19T04:41:36.180Z,20.40
2018-02-19T04:43:29.452Z,21.30
2018-02-19T04:44:29.359Z,21.20
2018-02-19T04:46:22.719Z,20.90
2018-02-19T04:47:22.531Z,21.00
2018-02-19T04:49:15.804Z,20.40
2018-02-19T04:50:15.708Z,20.70
2018-02-19T04:52:08.955Z,21.40
2018-02-19T04:53:08.883Z,20.80
2018-02-19T04:55:02.150Z,21.20
2018-02-19T04:56:02.054Z,21.00
2018-02-19T04:57:55.325Z,21.10
2018-02-19T04:58:55.233Z,21.30
2018-02-19T05:00:48.594Z,20.00
2018-02-19T05:01:48.496Z,20.00
2018-02-19T05:03:41.769Z,20.60
2018-02-19T05:04:41.673Z,20.40
2018-02-19T05:06:35.036Z,20.70
2018-02-19T05:07:34.846Z,21.40
2018-02-19T05:09:28.117Z,21.00
2018-02-19T05:10:28.025Z,19.90
2018-02-19T05:12:21.271Z,21.50
2018-02-19T05:13:21.199Z,21.40
2018-02-19T05:15:14.583Z,21.20
2018-02-19T05:16:14.490Z,21.70
2018-02-19T05:18:07.759Z,21.00
2018-02-19T05:19:07.666Z,21.50
2018-02-19T05:21:01.033Z,22.00
2018-02-19T05:22:00.848Z,21.40
2018-02-19T05:23:54.117Z,21.30
2018-02-19T05:24:54.024Z,20.50
2018-02-19T05:26:47.273Z,21.00
2018-02-19T05:27:47.197Z,20.90
2018-02-19T05:29:40.585Z,21.20
2018-02-19T05:30:40.490Z,21.00
2018-02-19T05:32:33.738Z,21.10
2018-02-19T05:33:33.666Z,21.30
2018-02-19T05:35:27.931Z,21.40
2018-02-19T05:36:27.841Z,19.70
2018-02-19T05:38:21.227Z,21.00
2018-02-19T05:39:21.022Z,20.90
2018-02-19T05:41:14.269Z,21.30
2018-02-19T05:42:14.192Z,21.80
2018-02-19T05:44:07.469Z,21.90
2018-02-19T05:45:07.368Z,21.60
2018-02-19T05:47:00.640Z,21.40
2018-02-19T05:48:00.564Z,20.90
2018-02-19T05:49:53.944Z,22.50
2018-02-19T05:50:53.739Z,21.90
2018-02-19T05:52:47.031Z,21.80
2018-02-19T05:53:46.915Z,21.30
2018-02-19T05:55:40.183Z,20.60
2018-02-19T05:56:40.092Z,21.60
2018-02-19T05:58:33.372Z,21.80
2018-02-19T05:59:33.354Z,22.20
2018-02-19T06:01:27.635Z,21.20
2018-02-19T06:02:27.451Z,22.00
2018-02-19T06:04:20.722Z,21.40
2018-02-19T06:05:20.625Z,22.10
2018-02-19T06:07:13.882Z,22.80
2018-02-19T06:08:13.806Z,22.50
2018-02-19T06:10:07.189Z,22.00
2018-02-19T06:11:06.981Z,23.00
2018-02-19T06:13:00.232Z,21.90
2018-02-19T06:14:00.158Z,21.70
2018-02-19T06:15:53.582Z,22.40
2018-02-19T06:16:53.485Z,22.10
2018-02-19T06:18:46.760Z,21.30
2018-02-19T06:19:46.665Z,21.90
2018-02-19T06:21:39.914Z,22.60
2018-02-19T06:22:39.840Z,22.10
2018-02-19T06:24:33.108Z,21.90
2018-02-19T06:25:33.017Z,21.90
2018-02-19T06:27:26.377Z,21.20
2018-02-19T06:28:26.191Z,22.20
2018-02-19T06:30:19.591Z,22.00
2018-02-19T06:31:19.495Z,22.80
2018-02-19T06:33:12.747Z,22.00
2018-02-19T06:34:12.672Z,22.40
2018-02-19T06:36:05.934Z,21.90
2018-02-19T06:37:05.837Z,22.10
2018-02-19T06:38:59.100Z,21.90
2018-02-19T06:39:59.000Z,21.80
2018-02-19T06:41:52.238Z,23.20
2018-02-19T06:42:52.164Z,22.70
2018-02-19T06:44:45.435Z,22.40
2018-02-19T06:45:45.339Z,23.50
2018-02-19T06:47:38.584Z,25.50
2018-02-19T06:48:38.512Z,22.30
2018-02-19T06:50:31.779Z,21.30
2018-02-19T06:51:31.683Z,22.70
2018-02-19T06:53:24.959Z,23.20
2018-02-19T06:54:24.891Z,22.40
2018-02-19T06:56:18.217Z,22.60
2018-02-19T06:57:18.016Z,22.50
2018-02-19T06:59:11.273Z,22.70
2018-02-19T07:00:11.206Z,22.60
2018-02-19T07:02:04.542Z,23.30
2018-02-19T07:03:04.353Z,23.00
2018-02-19T07:04:57.734Z,23.00
2018-02-19T07:05:57.519Z,23.60
2018-02-19T07:07:50.756Z,23.30
2018-02-19T07:08:50.685Z,21.90
2018-02-19T07:10:43.944Z,22.30
2018-02-19T07:11:43.847Z,23.00
2018-02-19T07:13:37.082Z,23.20
2018-02-19T07:14:37.011Z,21.80
2018-02-19T07:16:30.267Z,22.10
2018-02-19T07:17:30.175Z,22.70
2018-02-19T07:19:23.436Z,24.00
2018-02-19T07:20:23.342Z,21.90
2018-02-19T07:22:16.577Z,21.70
2018-02-19T07:23:16.503Z,21.90
2018-02-19T07:25:09.754Z,21.60
2018-02-19T07:26:09.671Z,22.70
2018-02-19T07:28:02.910Z,22.30
2018-02-19T07:29:02.831Z,21.80
2018-02-19T07:30:56.090Z,22.10
2018-02-19T07:31:55.994Z,21.90
2018-02-19T07:33:49.241Z,21.80
2018-02-19T07:34:49.168Z,21.50
2018-02-19T07:36:42.428Z,22.20
2018-02-19T07:37:42.330Z,23.20
2018-02-19T07:39:35.587Z,23.10
2018-02-19T07:40:35.490Z,22.20
2018-02-19T07:42:28.731Z,22.10
2018-02-19T07:43:28.655Z,21.60
2018-02-19T07:45:22.037Z,22.40
2018-02-19T07:46:21.829Z,22.10
2018-02-19T07:48:15.072Z,23.30
2018-02-19T07:49:14.994Z,22.70
2018-02-19T07:51:08.377Z,22.80
2018-02-19T07:52:08.172Z,21.60
2018-02-19T07:54:01.428Z,22.60
2018-02-19T07:55:01.335Z,22.30
2018-02-19T07:56:54.593Z,22.10
2018-02-19T07:57:54.499Z,22.70
2018-02-19T07:59:47.760Z,22.30
2018-02-19T08:00:47.663Z,22.80
2018-02-19T08:02:40.901Z,23.30
2018-02-19T08:03:40.828Z,22.30
2018-02-19T08:05:34.099Z,21.90
2018-02-19T08:06:34.003Z,22.70
2018-02-19T08:08:27.370Z,22.20
2018-02-19T08:09:27.168Z,22.00
2018-02-19T08:11:20.428Z,21.40
2018-02-19T08:12:20.329Z,22.00
2018-02-19T08:14:13.601Z,21.60
2018-02-19T08:15:13.507Z,21.60
2018-02-19T08:17:06.806Z,21.30
2018-02-19T08:18:06.713Z,22.20
2018-02-19T08:20:00.096Z,21.20
2018-02-19T08:20:59.882Z,21.50
2018-02-19T08:22:53.134Z,22.00
2018-02-19T08:23:53.116Z,21.60
2018-02-19T08:25:46.947Z,20.60
2018-02-19T08:26:46.226Z,21.50
2018-02-19T08:28:39.498Z,21.00
2018-02-19T08:29:39.394Z,21.20
2018-02-19T08:31:32.773Z,21.80
2018-02-19T08:32:32.559Z,20.90
2018-02-19T08:34:25.838Z,20.70
2018-02-19T08:35:25.723Z,20.70
2018-02-19T08:37:18.965Z,19.80
2018-02-19T08:38:18.892Z,21.20
2018-02-19T08:40:12.154Z,20.30
2018-02-19T08:41:12.061Z,20.30
2018-02-19T08:43:05.401Z,20.10
2018-02-19T08:44:05.329Z,20.70
2018-02-19T08:45:58.713Z,19.90
2018-02-19T08:46:58.495Z,19.90
2018-02-19T08:48:51.738Z,20.40
2018-02-19T08:49:51.665Z,20.20
2018-02-19T08:51:44.926Z,19.90
2018-02-19T08:52:44.838Z,19.40
2018-02-19T08:54:38.104Z,19.40
2018-02-19T08:55:38.001Z,19.60
2018-02-19T08:57:31.244Z,19.60
2018-02-19T08:58:31.169Z,18.90
2018-02-19T09:00:24.430Z,19.10
2018-02-19T09:01:24.337Z,19.80
2018-02-19T09:03:17.579Z,17.60
2018-02-19T09:04:17.508Z,18.40
2018-02-19T09:06:10.889Z,18.20
2018-02-19T09:07:10.673Z,18.40
2018-02-19T09:09:03.915Z,19.30
2018-02-19T09:10:03.841Z,19.10
2018-02-19T09:11:57.102Z,18.80
2018-02-19T09:12:57.008Z,20.30
2018-02-19T09:14:50.301Z,20.00
2018-02-19T09:15:50.209Z,20.20
2018-02-19T09:17:43.453Z,20.60
2018-02-19T09:18:43.379Z,20.40
2018-02-19T09:20:36.640Z,20.70
2018-02-19T09:21:36.551Z,20.30
2018-02-19T09:23:29.809Z,19.80
2018-02-19T09:24:29.739Z,19.20
2018-02-19T09:26:22.998Z,19.80
2018-02-19T09:27:22.905Z,19.90
2018-02-19T09:29:16.275Z,19.80
2018-02-19T09:30:16.074Z,19.70
2018-02-19T09:32:09.421Z,19.50
2018-02-19T09:33:09.327Z,18.90
2018-02-19T09:35:02.594Z,20.30
2018-02-19T09:36:02.495Z,19.70
2018-02-19T09:37:55.744Z,20.30
2018-02-19T09:38:55.667Z,19.30
2018-02-19T09:40:49.050Z,19.70
2018-02-19T09:41:48.841Z,20.20
2018-02-19T09:43:42.205Z,19.20
2018-02-19T09:44:42.016Z,19.00
2018-02-19T09:46:35.399Z,18.90
2018-02-19T09:47:35.188Z,22.10
2018-02-19T09:49:28.432Z,20.20
2018-02-19T09:50:28.360Z,23.20
2018-02-19T09:52:21.646Z,19.10
2018-02-19T09:53:21.557Z,19.60
2018-02-19T09:55:14.825Z,19.00
2018-02-19T09:56:14.734Z,18.40
2018-02-19T09:58:07.989Z,19.70
2018-02-19T09:59:07.911Z,20.30
2018-02-19T10:01:01.176Z,20.00
2018-02-19T10:02:01.087Z,20.00
2018-02-19T10:03:54.333Z,19.20
2018-02-19T10:04:54.261Z,18.90
2018-02-19T10:06:47.536Z,19.00
2018-02-19T10:07:47.479Z,18.70
2018-02-19T10:09:40.701Z,20.30
2018-02-19T10:10:40.640Z,18.70
2018-02-19T10:12:33.902Z,19.10
2018-02-19T10:13:33.813Z,19.20
2018-02-19T10:15:27.087Z,18.80
2018-02-19T10:16:26.992Z,19.20
2018-02-19T10:18:20.235Z,19.10
2018-02-19T10:19:20.167Z,18.90
2018-02-19T10:21:13.456Z,19.00
2018-02-19T10:22:13.343Z,19.60
2018-02-19T10:24:06.627Z,18.50
2018-02-19T10:25:06.522Z,18.20
2018-02-19T10:26:59.787Z,18.50
2018-02-19T10:27:59.695Z,18.60
2018-02-19T10:29:52.946Z,18.90
2018-02-19T10:30:52.875Z,18.30
2018-02-19T10:32:46.270Z,18.90
2018-02-19T10:33:46.052Z,19.50
2018-02-19T10:35:39.427Z,18.70
2018-02-19T10:36:39.338Z,19.30
2018-02-19T10:38:32.585Z,18.30
2018-02-19T10:39:32.504Z,18.40
2018-02-19T10:41:25.895Z,18.20
2018-02-19T10:42:25.686Z,19.00
2018-02-19T10:44:18.935Z,18.60
2018-02-19T10:45:18.861Z,18.10
2018-02-19T10:47:12.128Z,19.00
2018-02-19T10:48:12.037Z,18.40
2018-02-19T10:50:05.415Z,18.00
2018-02-19T10:51:05.337Z,19.30
2018-02-19T10:52:58.598Z,18.30
2018-02-19T10:53:58.512Z,18.70
2018-02-19T10:55:51.895Z,18.30
2018-02-19T10:56:51.684Z,18.60
2018-02-19T10:58:44.930Z,17.90
2018-02-19T10:59:44.858Z,19.10
2018-02-19T11:01:38.128Z,18.20
2018-02-19T11:02:38.036Z,17.50
2018-02-19T11:04:31.407Z,17.80
2018-02-19T11:05:31.332Z,18.50
2018-02-19T11:07:24.598Z,19.20
2018-02-19T11:08:24.505Z,19.00
2018-02-19T11:10:17.751Z,19.00
2018-02-19T11:11:17.679Z,19.60
2018-02-19T11:13:10.943Z,18.90
2018-02-19T11:14:10.855Z,18.60
2018-02-19T11:16:04.117Z,18.50
2018-02-19T11:17:04.027Z,19.90
2018-02-19T11:18:57.410Z,21.30
2018-02-19T11:19:57.339Z,19.10
2018-02-19T11:21:50.602Z,18.50
2018-02-19T11:22:50.511Z,18.20
2018-02-19T11:24:43.761Z,20.20
2018-02-19T11:25:43.685Z,19.10
2018-02-19T11:27:36.951Z,19.50
2018-02-19T11:28:36.859Z,19.80
2018-02-19T11:30:30.107Z,20.30
2018-02-19T11:31:30.041Z,19.40
2018-02-19T11:33:23.435Z,19.80
2018-02-19T11:34:23.342Z,19.30
2018-02-19T11:36:16.723Z,19.50
2018-02-19T11:37:16.513Z,20.50
2018-02-19T11:39:09.771Z,17.50
2018-02-19T11:40:09.688Z,18.20
2018-02-19T11:42:03.068Z,19.00
2018-02-19T11:43:02.858Z,20.60
2018-02-19T11:44:56.146Z,19.20
2018-02-19T11:45:56.031Z,19.00
2018-02-19T11:47:49.448Z,18.90
2018-02-19T11:48:49.351Z,18.90
2018-02-19T11:50:42.602Z,18.80
2018-02-19T11:51:42.530Z,18.00
2018-02-19T11:53:35.915Z,17.40
2018-02-19T11:54:35.703Z,19.20
2018-02-19T11:56:28.964Z,19.00
2018-02-19T11:57:28.870Z,19.20
2018-02-19T11:59:22.241Z,17.90
2018-02-19T12:00:22.049Z,18.20
2018-02-19T12:02:15.433Z,18.60
2018-02-19T12:03:15.342Z,18.80
2018-02-19T12:05:08.586Z,18.70
2018-02-19T12:06:08.576Z,18.90
2018-02-19T12:08:01.777Z,18.10
2018-02-19T12:09:01.698Z,17.50
2018-02-19T12:10:54.932Z,21.90
2018-02-19T12:11:54.859Z,20.10
2018-02-19T12:13:48.122Z,18.40
2018-02-19T12:14:48.031Z,17.90
2018-02-19T12:16:41.433Z,17.30
2018-02-19T12:17:41.343Z,17.60
2018-02-19T12:19:34.588Z,18.10
2018-02-19T12:20:34.514Z,18.70
2018-02-19T12:22:27.779Z,17.90
2018-02-19T12:23:27.687Z,18.20
2018-02-19T12:25:20.935Z,17.30
2018-02-19T12:26:20.866Z,17.60
2018-02-19T12:28:14.142Z,18.20
2018-02-19T12:29:14.050Z,18.30
2018-02-19T12:31:07.414Z,17.30
2018-02-19T12:32:07.345Z,16.60
2018-02-19T12:34:00.616Z,17.70
2018-02-19T12:35:00.520Z,18.10
2018-02-19T12:36:53.782Z,18.00
2018-02-19T12:37:53.692Z,18.70
2018-02-19T12:39:46.940Z,15.80
2018-02-19T12:40:46.866Z,16.80
2018-02-19T12:42:40.144Z,16.10
2018-02-19T12:43:40.061Z,16.30
2018-02-19T12:45:33.421Z,16.00
2018-02-19T12:46:33.350Z,16.70
2018-02-19T12:48:26.727Z,16.70
2018-02-19T12:49:26.518Z,18.00
2018-02-19T12:51:19.884Z,16.40
2018-02-19T12:52:19.688Z,18.10
2018-02-19T12:54:12.969Z,16.30
2018-02-19T12:55:12.881Z,15.60
2018-02-19T12:57:06.144Z,15.60
2018-02-19T12:58:06.054Z,14.70
2018-02-19T12:59:59.421Z,15.70
2018-02-19T13:00:59.388Z,14.90
2018-02-19T13:02:52.618Z,14.80
2018-02-19T13:03:52.516Z,15.40
2018-02-19T13:05:45.771Z,16.00
2018-02-19T13:06:45.700Z,16.70
2018-02-19T13:08:38.965Z,16.90
2018-02-19T13:09:38.875Z,16.10
2018-02-19T13:11:32.278Z,16.50
2018-02-19T13:12:32.052Z,16.30
2018-02-19T13:14:25.496Z,16.70
2018-02-19T13:15:25.383Z,15.80
2018-02-19T13:17:18.649Z,16.10
2018-02-19T13:18:18.596Z,15.60
2018-02-19T13:20:11.820Z,15.00
2018-02-19T13:21:11.762Z,14.60
2018-02-19T13:23:05.018Z,14.90
2018-02-19T13:24:04.926Z,15.20
2018-02-19T13:25:58.171Z,14.80
2018-02-19T13:26:58.100Z,15.60
2018-02-19T13:28:51.364Z,15.50
2018-02-19T13:29:51.273Z,14.90
2018-02-19T13:31:44.519Z,14.60
2018-02-19T13:32:44.449Z,14.80
2018-02-19T13:34:37.712Z,14.30
2018-02-19T13:35:37.621Z,14.20
2018-02-19T13:37:31.007Z,15.20
2018-02-19T13:38:30.795Z,14.60
2018-02-19T13:40:24.041Z,14.20
2018-02-19T13:41:23.968Z,14.40
2018-02-19T13:43:17.234Z,14.30
2018-02-19T13:44:17.145Z,16.30
2018-02-19T13:46:10.389Z,14.50
2018-02-19T13:47:10.313Z,14.30
2018-02-19T13:49:03.581Z,15.00
2018-02-19T13:50:03.489Z,15.70
2018-02-19T13:51:56.736Z,15.30
2018-02-19T13:52:56.663Z,15.90
2018-02-19T13:54:50.048Z,15.50
2018-02-19T13:55:49.837Z,16.20
2018-02-19T13:57:43.116Z,16.50
2018-02-19T13:58:43.024Z,16.50
2018-02-19T14:00:36.280Z,15.40
2018-02-19T14:01:36.199Z,16.20
2018-02-19T14:03:29.589Z,15.40
2018-02-19T14:04:29.374Z,16.00
2018-02-19T14:06:22.620Z,16.50
2018-02-19T14:07:22.549Z,16.20
2018-02-19T14:09:15.816Z,15.30
2018-02-19T14:10:15.724Z,15.80
2018-02-19T14:12:09.091Z,16.30
2018-02-19T14:13:08.900Z,16.50
2018-02-19T14:15:02.284Z,15.80
2018-02-19T14:16:02.077Z,15.00
2018-02-19T14:17:55.340Z,15.70
2018-02-19T14:18:55.248Z,14.60
2018-02-19T14:20:48.617Z,15.80
2018-02-19T14:21:48.425Z,14.90
2018-02-19T14:23:41.687Z,14.60
2018-02-19T14:24:41.596Z,14.60
2018-02-19T14:26:34.963Z,15.40
2018-02-19T14:27:34.775Z,15.40
2018-02-19T14:29:28.052Z,15.90
2018-02-19T14:30:27.957Z,15.60
2018-02-19T14:32:21.214Z,15.20
2018-02-19T14:33:21.142Z,15.60
2018-02-19T14:35:14.529Z,15.50
2018-02-19T14:36:14.342Z,15.90
2018-02-19T14:38:07.613Z,15.50
2018-02-19T14:39:07.524Z,14.90
2018-02-19T14:41:00.891Z,15.20
2018-02-19T14:42:00.713Z,15.20
2018-02-19T14:43:53.987Z,14.50
2018-02-19T14:44:53.897Z,15.30
2018-02-19T14:46:47.153Z,14.80
2018-02-19T14:47:47.083Z,15.70
2018-02-19T14:49:40.445Z,16.90
2018-02-19T14:50:40.354Z,15.50
2018-02-19T14:52:33.606Z,16.00
2018-02-19T14:53:33.536Z,16.10
2018-02-19T14:55:26.926Z,16.40
2018-02-19T14:56:26.756Z,15.80
2018-02-19T14:58:19.993Z,16.60
2018-02-19T14:59:19.902Z,15.40
2018-02-19T15:01:13.275Z,15.50
2018-02-19T15:02:13.085Z,15.50
2018-02-19T15:04:07.432Z,16.00
2018-02-19T15:05:07.340Z,16.30
2018-02-19T15:07:00.603Z,15.20
2018-02-19T15:08:00.524Z,15.10
2018-02-19T15:09:53.793Z,16.20
2018-02-19T15:10:53.698Z,15.50
2018-02-19T15:12:46.952Z,15.40
2018-02-19T15:13:46.880Z,15.60
2018-02-19T15:15:40.156Z,15.40
2018-02-19T15:16:40.065Z,15.10
2018-02-19T15:18:33.435Z,15.40
2018-02-19T15:19:33.340Z,16.50
2018-02-19T15:21:26.705Z,15.50
2018-02-19T15:22:26.522Z,15.30
2018-02-19T15:24:19.796Z,14.50
2018-02-19T15:25:19.707Z,14.50
2018-02-19T15:27:12.989Z,16.10
2018-02-19T15:28:12.917Z,15.60
2018-02-19T15:30:06.181Z,15.30
2018-02-19T15:31:06.091Z,15.70
2018-02-19T15:32:59.410Z,15.30
2018-02-19T15:33:59.342Z,15.40
2018-02-19T15:35:52.725Z,13.90
2018-02-19T15:36:52.523Z,14.40
2018-02-19T15:38:45.814Z,15.60
2018-02-19T15:39:45.710Z,15.90
2018-02-19T15:41:38.958Z,14.60
2018-02-19T15:42:38.886Z,14.30
2018-02-19T15:44:32.269Z,14.80
2018-02-19T15:45:32.070Z,13.70
2018-02-19T15:47:25.432Z,14.50
2018-02-19T15:48:25.341Z,14.30
2018-02-19T15:50:18.605Z,14.50
2018-02-19T15:51:18.513Z,13.90
2018-02-19T15:53:11.765Z,14.60
2018-02-19T15:54:11.698Z,14.40
2018-02-19T15:56:04.965Z,14.60
2018-02-19T15:57:04.873Z,14.80
2018-02-19T15:58:58.153Z,15.30
2018-02-19T15:59:58.056Z,15.50
2018-02-19T16:01:51.332Z,14.80
2018-02-19T16:02:51.240Z,15.00
2018-02-19T16:04:44.511Z,15.10
2018-02-19T16:05:44.418Z,15.00
2018-02-19T16:07:37.783Z,15.00
2018-02-19T16:08:37.597Z,15.30
2018-02-19T16:10:30.861Z,15.50
2018-02-19T16:11:30.769Z,14.80
2018-02-19T16:13:24.029Z,15.30
2018-02-19T16:14:23.956Z,15.70
2018-02-19T16:16:17.344Z,16.20
2018-02-19T16:17:17.139Z,15.30
2018-02-19T16:19:10.408Z,15.10
2018-02-19T16:20:10.317Z,15.90
2018-02-19T16:22:03.568Z,15.00
2018-02-19T16:23:03.499Z,14.50
2018-02-19T16:24:56.771Z,15.90
2018-02-19T16:25:56.677Z,15.80
2018-02-19T16:27:49.933Z,15.00
2018-02-19T16:28:49.861Z,14.70
2018-02-19T16:30:43.138Z,15.10
2018-02-19T16:31:43.040Z,14.70
2018-02-19T16:33:36.297Z,15.00
2018-02-19T16:34:36.225Z,15.40
2018-02-19T16:36:29.496Z,15.10
2018-02-19T16:37:29.406Z,15.40
2018-02-19T16:39:22.682Z,15.70
2018-02-19T16:40:22.587Z,15.20
2018-02-19T16:42:15.836Z,15.70
2018-02-19T16:43:15.768Z,16.20
2018-02-19T16:45:09.044Z,15.10
2018-02-19T16:46:08.952Z,14.90
2018-02-19T16:48:02.316Z,15.10
2018-02-19T16:49:02.135Z,14.90
2018-02-19T16:50:55.429Z,15.20
2018-02-19T16:51:55.337Z,14.70
2018-02-19T16:53:48.590Z,15.30
2018-02-19T16:54:48.517Z,15.40
2018-02-19T16:56:41.793Z,15.70
2018-02-19T16:57:41.705Z,16.10
2018-02-19T16:59:34.970Z,14.60
2018-02-19T17:00:34.881Z,15.90
2018-02-19T17:02:28.236Z,16.40
2018-02-19T17:03:28.059Z,15.40
2018-02-19T17:05:21.433Z,15.70
2018-02-19T17:06:21.337Z,15.90
2018-02-19T17:08:14.593Z,16.40
2018-02-19T17:09:14.517Z,16.30
2018-02-19T17:11:07.792Z,16.20
2018-02-19T17:12:07.701Z,16.10
2018-02-19T17:14:00.955Z,16.80
2018-02-19T17:15:00.882Z,16.10
2018-02-19T17:16:54.167Z,16.50
2018-02-19T17:17:54.065Z,16.60
2018-02-19T17:19:47.430Z,15.80
2018-02-19T17:20:47.337Z,16.30
2018-02-19T17:22:40.590Z,16.40
2018-02-19T17:23:40.517Z,16.90
2018-02-19T17:25:33.792Z,17.30
2018-02-19T17:26:33.702Z,16.80
2018-02-19T17:28:26.950Z,17.00
2018-02-19T17:29:26.881Z,17.50
2018-02-19T17:31:20.155Z,17.10
2018-02-19T17:32:20.063Z,17.80
2018-02-19T17:34:13.410Z,17.50
2018-02-19T17:35:13.342Z,16.90
2018-02-19T17:37:06.618Z,16.90
2018-02-19T17:38:06.521Z,17.20
2018-02-19T17:39:59.786Z,17.10
2018-02-19T17:40:59.692Z,16.90
2018-02-19T17:42:52.951Z,17.20
2018-02-19T17:43:52.882Z,17.00
2018-02-19T17:45:46.159Z,17.40
2018-02-19T17:46:46.065Z,17.40
2018-02-19T17:48:39.413Z,16.10
2018-02-19T17:49:39.338Z,16.60
2018-02-19T17:51:32.629Z,16.30
2018-02-19T17:52:32.521Z,16.20
2018-02-19T17:54:25.777Z,16.90
2018-02-19T17:55:25.705Z,17.30
2018-02-19T17:57:18.977Z,16.50
2018-02-19T17:58:18.885Z,17.40
2018-02-19T18:00:12.151Z,17.00
2018-02-19T18:01:12.061Z,17.30
2018-02-19T18:03:05.423Z,16.90
2018-02-19T18:04:05.335Z,16.90
2018-02-19T18:05:58.608Z,17.60
2018-02-19T18:06:58.518Z,17.10
2018-02-19T18:08:51.769Z,16.60
2018-02-19T18:09:51.700Z,16.40
2018-02-19T18:11:44.972Z,17.20
2018-02-19T18:12:44.881Z,17.20
2018-02-19T18:14:38.133Z,16.70
2018-02-19T18:15:38.060Z,16.50
2018-02-19T18:17:31.434Z,18.10
2018-02-19T18:18:31.338Z,17.00
2018-02-19T18:20:24.612Z,17.40
2018-02-19T18:21:24.520Z,17.70
2018-02-19T18:23:17.773Z,16.40
2018-02-19T18:24:17.701Z,15.50
2018-02-19T18:26:10.976Z,16.90
2018-02-19T18:27:10.882Z,17.70
2018-02-19T18:29:04.138Z,16.70
2018-02-19T18:30:04.098Z,16.70
2018-02-19T18:31:57.340Z,17.90
2018-02-19T18:32:57.243Z,17.90
2018-02-19T18:34:50.496Z,17.10